createdAt,value
2023-04-28T00:01:10.057Z,2.00
2023-04-28T00:03:11.876Z,2.00
2023-04-28T00:05:13.667Z,2.00
2023-04-28T00:07:15.361Z,1.67
2023-04-28T00:09:16.914Z,2.00
2023-04-28T00:11:18.682Z,2.33
2023-04-28T00:13:20.286Z,2.00
2023-04-28T00:15:23.486Z,1.00
2023-04-28T00:17:25.154Z,3.00
2023-04-28T00:19:26.867Z,2.00
2023-04-28T00:21:28.524Z,1.00
2023-04-28T00:23:30.123Z,2.00
2023-04-28T00:25:31.788Z,1.00
2023-04-28T00:27:33.643Z,1.00
2023-04-28T00:29:35.229Z,2.00
2023-04-28T00:31:38.173Z,2.00
2023-04-28T00:33:40.140Z,1.33
2023-04-28T00:35:41.785Z,2.00
2023-04-28T00:37:43.438Z,1.00
2023-04-28T00:39:45.096Z,2.00
2023-04-28T00:41:46.632Z,2.00
2023-04-28T00:43:48.926Z,2.67
2023-04-28T00:45:50.621Z,2.33
2023-04-28T00:47:54.730Z,2.00
2023-04-28T00:49:56.655Z,1.67
2023-04-28T00:51:59.854Z,2.67
2023-04-28T00:54:01.729Z,3.00
2023-04-28T00:56:03.994Z,3.00
2023-04-28T00:58:06.134Z,1.00
2023-04-28T01:00:08.756Z,2.00
2023-04-28T01:02:11.425Z,2.00
2023-04-28T01:04:15.216Z,1.00
2023-04-28T01:06:18.060Z,2.00
2023-04-28T01:08:23.514Z,2.00
2023-04-28T01:10:25.055Z,3.00
2023-04-28T01:12:26.655Z,1.67
2023-04-28T01:14:28.222Z,2.33
2023-04-28T01:16:30.134Z,2.00
2023-04-28T01:18:31.948Z,2.00
2023-04-28T01:20:34.926Z,2.00
2023-04-28T01:22:36.599Z,2.33
2023-04-28T01:24:39.915Z,2.00
2023-04-28T01:26:41.637Z,2.00
2023-04-28T01:28:43.249Z,1.67
2023-04-28T01:30:44.827Z,2.00
2023-04-28T01:32:46.426Z,1.33
2023-04-28T01:34:48.013Z,2.67
2023-04-28T01:36:49.722Z,2.33
2023-04-28T01:38:51.302Z,2.67
2023-04-28T01:40:55.605Z,1.67
2023-04-28T01:42:57.272Z,2.00
2023-04-28T01:44:59.063Z,2.00
2023-04-28T01:47:00.604Z,1.33
2023-04-28T01:49:02.591Z,2.00
2023-04-28T01:51:04.389Z,3.00
2023-04-28T01:53:06.050Z,1.67
2023-04-28T01:55:08.533Z,3.00
2023-04-28T01:57:11.532Z,2.00
2023-04-28T01:59:13.069Z,2.00
2023-04-28T02:01:14.641Z,2.67
2023-04-28T02:03:16.368Z,2.00
2023-04-28T02:05:17.996Z,1.33
2023-04-28T02:07:19.603Z,2.00
2023-04-28T02:09:21.128Z,1.00
2023-04-28T02:11:22.773Z,3.00
2023-04-28T02:13:25.714Z,3.00
2023-04-28T02:15:27.279Z,3.00
2023-04-28T02:17:30.077Z,2.00
2023-04-28T02:19:31.697Z,2.00
2023-04-28T02:21:33.359Z,3.00
2023-04-28T02:23:34.995Z,3.00
2023-04-28T02:25:36.549Z,2.33
2023-04-28T02:27:38.225Z,3.67
2023-04-28T02:29:41.215Z,5.00
2023-04-28T02:31:42.816Z,2.67
2023-04-28T02:33:44.587Z,2.00
2023-04-28T02:35:46.187Z,3.00
2023-04-28T02:37:47.693Z,2.00
2023-04-28T02:39:49.242Z,5.00
2023-04-28T02:41:50.942Z,5.00
2023-04-28T02:43:52.472Z,2.00
2023-04-28T02:45:55.695Z,2.67
2023-04-28T02:47:57.344Z,4.33
2023-04-28T02:49:58.950Z,5.00
2023-04-28T02:52:00.496Z,3.00
2023-04-28T02:54:02.051Z,3.00
2023-04-28T02:56:03.889Z,2.67
2023-04-28T02:58:05.627Z,3.00
2023-04-28T03:00:08.444Z,2.00
2023-04-28T03:02:11.394Z,4.33
2023-04-28T03:04:13.104Z,3.00
2023-04-28T03:06:14.804Z,2.33
2023-04-28T03:08:16.520Z,2.00
2023-04-28T03:10:18.404Z,3.00
2023-04-28T03:12:19.994Z,2.00
2023-04-28T03:14:21.658Z,5.00
2023-04-28T03:16:23.401Z,2.00
2023-04-28T03:18:26.439Z,3.67
2023-04-28T03:20:28.228Z,5.00
2023-04-28T03:22:29.845Z,5.00
2023-04-28T03:24:31.625Z,2.67
2023-04-28T03:26:33.363Z,2.33
2023-04-28T03:28:34.947Z,3.00
2023-04-28T03:30:36.508Z,3.00
2023-04-28T03:32:38.093Z,5.00
2023-04-28T03:34:41.000Z,7.00
2023-04-28T03:36:42.563Z,3.67
2023-04-28T03:38:44.495Z,3.67
2023-04-28T03:40:46.059Z,2.67
2023-04-28T03:42:47.651Z,1.00
2023-04-28T03:44:49.195Z,1.00
2023-04-28T03:46:50.794Z,5.00
2023-04-28T03:48:52.285Z,1.33
2023-04-28T03:50:55.317Z,5.33
2023-04-28T03:52:56.891Z,5.00
2023-04-28T03:54:58.643Z,3.67
2023-04-28T03:57:00.311Z,5.00
2023-04-28T03:59:01.917Z,2.00
2023-04-28T04:01:03.510Z,1.00
2023-04-28T04:03:05.278Z,3.00
2023-04-28T04:05:07.389Z,4.33
2023-04-28T04:07:10.791Z,3.00
2023-04-28T04:09:15.409Z,3.00
2023-04-28T04:11:16.928Z,5.67
2023-04-28T04:13:18.518Z,6.33
2023-04-28T04:15:20.066Z,5.33
2023-04-28T04:17:21.680Z,5.00
2023-04-28T04:19:23.263Z,5.00
2023-04-28T04:21:24.993Z,5.00
2023-04-28T04:23:28.093Z,5.00
2023-04-28T04:25:30.318Z,3.00
2023-04-28T04:27:31.916Z,3.00
2023-04-28T04:29:33.878Z,3.00
2023-04-28T04:31:35.648Z,5.00
2023-04-28T04:33:37.299Z,3.67
2023-04-28T04:35:38.961Z,5.00
2023-04-28T04:37:40.983Z,1.00
2023-04-28T04:39:43.913Z,2.00
2023-04-28T04:41:45.825Z,3.00
2023-04-28T04:43:47.439Z,5.00
2023-04-28T04:45:49.126Z,3.00
2023-04-28T04:47:50.777Z,6.00
2023-04-28T04:49:52.942Z,3.67
2023-04-28T04:51:54.718Z,3.67
2023-04-28T04:53:56.355Z,5.00
2023-04-28T04:55:59.289Z,5.00
2023-04-28T04:58:01.203Z,5.00
2023-04-28T05:00:03.248Z,6.00
2023-04-28T05:02:05.055Z,5.00
2023-04-28T05:04:06.785Z,5.00
2023-04-28T05:06:08.474Z,5.67
2023-04-28T05:08:10.050Z,5.00
2023-04-28T05:10:11.595Z,6.00
2023-04-28T05:12:14.527Z,5.33
2023-04-28T05:14:16.992Z,5.00
2023-04-28T05:16:19.098Z,3.00
2023-04-28T05:18:20.897Z,5.00
2023-04-28T05:20:23.029Z,6.00
2023-04-28T05:22:24.775Z,6.00
2023-04-28T05:24:26.304Z,6.33
2023-04-28T05:26:28.192Z,7.00
2023-04-28T05:28:31.501Z,4.67
2023-04-28T05:30:33.138Z,4.33
2023-04-28T05:32:34.869Z,5.67
2023-04-28T05:34:36.424Z,4.33
2023-04-28T05:36:38.195Z,6.67
2023-04-28T05:38:39.779Z,6.00
2023-04-28T05:40:41.343Z,3.00
2023-04-28T05:42:42.929Z,3.33
2023-04-28T05:44:45.841Z,4.00
2023-04-28T05:46:47.439Z,4.00
2023-04-28T05:48:48.961Z,3.67
2023-04-28T05:50:50.522Z,4.25
2023-04-28T05:52:53.943Z,1.75
2023-04-28T05:54:55.514Z,4.00
2023-04-28T05:56:57.802Z,3.33
2023-04-28T05:59:00.482Z,3.00
2023-04-28T06:01:03.437Z,4.00
2023-04-28T06:03:05.206Z,4.50
2023-04-28T06:05:07.886Z,2.00
2023-04-28T06:07:10.065Z,3.50
2023-04-28T06:09:11.721Z,4.00
2023-04-28T06:11:13.258Z,4.50
2023-04-28T06:13:15.218Z,4.50
2023-04-28T06:15:16.782Z,4.00
2023-04-28T06:17:19.820Z,4.25
2023-04-28T06:19:21.402Z,3.00
2023-04-28T06:21:23.151Z,4.75
2023-04-28T06:23:25.195Z,4.25
2023-04-28T06:25:26.835Z,4.00
2023-04-28T06:27:28.386Z,4.25
2023-04-28T06:29:29.947Z,2.00
2023-04-28T06:31:31.549Z,4.00
2023-04-28T06:33:34.548Z,4.00
2023-04-28T06:35:36.573Z,5.00
2023-04-28T06:37:38.282Z,4.25
2023-04-28T06:39:39.791Z,5.50
2023-04-28T06:41:41.411Z,5.00
2023-04-28T06:43:43.277Z,2.25
2023-04-28T06:45:45.123Z,2.50
2023-04-28T06:47:46.896Z,4.00
2023-04-28T06:49:49.767Z,3.00
2023-04-28T06:51:51.557Z,3.00
2023-04-28T06:53:55.408Z,4.75
2023-04-28T06:55:57.021Z,3.50
2023-04-28T06:57:58.676Z,3.25
2023-04-28T07:00:00.212Z,4.00
2023-04-28T07:02:01.899Z,3.00
2023-04-28T07:04:03.838Z,3.75
2023-04-28T07:06:07.234Z,3.00
2023-04-28T07:08:08.831Z,2.00
2023-04-28T07:10:10.546Z,2.75
2023-04-28T07:12:12.142Z,1.00
2023-04-28T07:14:13.838Z,1.25
2023-04-28T07:16:15.740Z,2.00
2023-04-28T07:18:17.338Z,1.00
2023-04-28T07:20:19.289Z,0.00
2023-04-28T07:22:22.222Z,1.25
2023-04-28T07:24:23.739Z,0.00
2023-04-28T07:26:25.329Z,1.50
2023-04-28T07:28:27.122Z,3.50
2023-04-28T07:30:28.661Z,3.00
2023-04-28T07:32:30.287Z,2.75
2023-04-28T07:34:32.171Z,2.75
2023-04-28T07:36:34.386Z,1.50
2023-04-28T07:38:37.346Z,1.00
2023-04-28T07:40:39.096Z,1.00
2023-04-28T07:42:40.761Z,1.00
2023-04-28T07:44:42.338Z,2.00
2023-04-28T07:46:43.938Z,1.00
2023-04-28T07:48:45.650Z,1.00
2023-04-28T07:50:47.357Z,1.00
2023-04-28T07:52:49.011Z,1.00
2023-04-28T07:54:52.019Z,1.00
2023-04-28T07:56:54.029Z,2.00
2023-04-28T07:58:55.857Z,1.00
2023-04-28T08:00:57.478Z,2.00
2023-04-28T08:02:59.136Z,1.00
2023-04-28T08:05:01.091Z,1.50
2023-04-28T08:07:03.290Z,2.25
2023-04-28T08:09:04.888Z,2.00
2023-04-28T08:11:07.869Z,1.00
2023-04-28T08:13:09.457Z,1.50
2023-04-28T08:15:11.515Z,2.00
2023-04-28T08:17:13.157Z,1.00
2023-04-28T08:19:14.796Z,1.20
2023-04-28T08:21:16.505Z,1.80
2023-04-28T08:23:18.315Z,1.20
2023-04-28T08:25:19.874Z,1.80
2023-04-28T08:27:22.830Z,1.20
2023-04-28T08:29:24.578Z,1.00
2023-04-28T08:31:26.347Z,1.00
2023-04-28T08:33:28.069Z,1.00
2023-04-28T08:35:30.215Z,2.00
2023-04-28T08:37:31.879Z,1.00
2023-04-28T08:39:33.508Z,2.00
2023-04-28T08:41:38.870Z,2.00
2023-04-28T08:43:42.060Z,1.00
2023-04-28T08:45:44.741Z,1.40
2023-04-28T08:47:49.644Z,2.00
2023-04-28T08:49:53.127Z,1.80
2023-04-28T08:51:57.502Z,2.00
2023-04-28T08:54:18.905Z,1.00
2023-04-28T08:56:23.512Z,0.60
2023-04-28T08:58:26.581Z,1.60
2023-04-28T09:00:29.454Z,1.20
2023-04-28T09:02:31.457Z,0.80
2023-04-28T09:04:33.377Z,0.80
2023-04-28T09:06:36.512Z,0.80
2023-04-28T09:08:38.144Z,2.00
2023-04-28T09:10:39.795Z,1.00
2023-04-28T09:12:41.383Z,0.00
2023-04-28T09:14:42.983Z,1.60
2023-04-28T09:16:46.114Z,0.20
2023-04-28T09:18:56.461Z,2.00
2023-04-28T09:21:03.727Z,1.40
2023-04-28T09:23:16.339Z,1.40
2023-04-28T09:25:18.062Z,1.20
2023-04-28T09:27:27.498Z,1.80
2023-04-28T09:29:29.256Z,1.00
2023-04-28T09:31:30.899Z,0.20
2023-04-28T09:33:33.928Z,1.40
2023-04-28T09:35:43.006Z,0.80
2023-04-28T09:37:45.272Z,0.80
2023-04-28T09:39:48.015Z,1.00
2023-04-28T09:41:49.653Z,0.00
2023-04-28T09:43:51.217Z,1.80
2023-04-28T09:45:53.239Z,2.20
2023-04-28T09:48:10.052Z,0.80
2023-04-28T09:50:15.207Z,2.00
2023-04-28T09:52:17.018Z,1.20
2023-04-28T09:54:21.835Z,2.00
2023-04-28T09:56:27.433Z,2.00
2023-04-28T09:58:30.725Z,3.00
2023-04-28T10:00:34.213Z,2.00
2023-04-28T10:04:44.839Z,2.00
2023-04-28T10:06:48.545Z,1.50
2023-04-28T10:08:51.304Z,1.75
2023-04-28T10:10:53.880Z,2.50
2023-04-28T10:12:56.255Z,1.25
2023-04-28T10:14:58.440Z,2.00
2023-04-28T10:17:01.292Z,1.00
2023-04-28T10:19:03.062Z,1.00
2023-04-28T10:21:06.681Z,1.75
2023-04-28T10:23:36.543Z,1.00
2023-04-28T10:25:38.101Z,1.50
2023-04-28T10:27:42.354Z,1.00
2023-04-28T10:29:44.894Z,2.25
2023-04-28T10:32:17.685Z,2.00
2023-04-28T10:34:22.997Z,2.00
2023-04-28T10:36:48.333Z,1.75
2023-04-28T10:39:11.103Z,1.00
2023-04-28T10:41:33.737Z,2.00
2023-04-28T10:43:39.522Z,1.00
2023-04-28T10:46:01.292Z,2.00
2023-04-28T10:48:03.100Z,2.00
2023-04-28T10:50:08.816Z,1.75
2023-04-28T10:52:43.735Z,1.00
2023-04-28T10:55:29.404Z,1.00
2023-04-28T10:57:30.985Z,3.00
2023-04-28T10:59:32.696Z,1.50
2023-04-28T11:01:34.538Z,1.75
2023-04-28T11:03:49.347Z,1.75
2023-04-28T11:06:18.472Z,2.00
2023-04-28T11:08:34.994Z,1.00
2023-04-28T11:11:09.925Z,1.00
2023-04-28T11:13:28.347Z,2.00
2023-04-28T11:15:30.018Z,1.00
2023-04-28T11:17:41.000Z,1.00
2023-04-28T11:19:44.228Z,0.00
2023-04-28T11:21:46.890Z,1.50
2023-04-28T11:23:48.963Z,1.50
2023-04-28T11:25:56.713Z,1.00
2023-04-28T11:28:04.273Z,2.00
2023-04-28T11:30:21.067Z,2.00
2023-04-28T11:32:27.754Z,1.00
2023-04-28T11:34:29.421Z,1.00
2023-04-28T11:36:33.382Z,1.50
2023-04-28T11:38:43.439Z,1.00
2023-04-28T11:40:56.907Z,2.00
2023-04-28T11:43:00.004Z,1.75
2023-04-28T11:45:02.300Z,1.00
2023-04-28T11:47:06.832Z,1.67
2023-04-28T11:49:08.622Z,0.75
2023-04-28T11:51:10.303Z,1.00
2023-04-28T11:53:11.937Z,1.00
2023-04-28T11:55:17.074Z,1.25
2023-04-28T11:57:20.474Z,1.00
2023-04-28T12:01:26.693Z,2.00
2023-04-28T12:03:29.866Z,1.00
2023-04-28T12:05:31.540Z,2.00
2023-04-28T12:07:41.675Z,1.00
2023-04-28T12:09:45.272Z,1.00
2023-04-28T12:11:57.269Z,1.00
2023-04-28T12:14:06.500Z,0.25
2023-04-28T12:16:09.134Z,0.75
2023-04-28T12:18:11.137Z,0.25
2023-04-28T12:20:35.509Z,1.00
2023-04-28T12:22:47.745Z,0.00
2023-04-28T12:25:03.777Z,1.00
2023-04-28T12:27:16.166Z,2.00
2023-04-28T12:29:35.928Z,1.25
2023-04-28T12:31:50.210Z,1.00
2023-04-28T12:33:51.816Z,1.25
2023-04-28T12:35:55.926Z,1.25
2023-04-28T12:37:57.918Z,0.50
2023-04-28T12:39:59.556Z,1.25
2023-04-28T12:42:01.507Z,1.00
2023-04-28T12:44:03.043Z,1.00
2023-04-28T12:46:05.550Z,1.00
2023-04-28T12:48:07.875Z,0.00
2023-04-28T12:50:09.838Z,1.25
2023-04-28T12:52:12.823Z,1.00
2023-04-28T12:54:14.412Z,1.00
2023-04-28T12:56:16.049Z,1.00
2023-04-28T12:58:17.641Z,1.00
2023-04-28T13:00:19.393Z,1.00
2023-04-28T13:02:21.291Z,3.00
2023-04-28T13:04:23.437Z,2.75
2023-04-28T13:06:26.692Z,3.75
2023-04-28T13:08:31.865Z,1.25
2023-04-28T13:10:33.379Z,3.00
2023-04-28T13:12:35.043Z,3.00
2023-04-28T13:14:36.740Z,3.75
2023-04-28T13:16:38.531Z,1.75
2023-04-28T13:18:40.275Z,3.00
2023-04-28T13:20:41.799Z,0.50
2023-04-28T13:22:43.883Z,2.00
2023-04-28T13:24:46.951Z,3.00
2023-04-28T13:26:48.785Z,2.25
2023-04-28T13:28:51.146Z,2.00
2023-04-28T13:30:52.911Z,2.25
2023-04-28T13:32:56.162Z,3.00
2023-04-28T13:34:58.941Z,3.25
2023-04-28T13:37:00.614Z,2.25
2023-04-28T13:39:02.698Z,2.00
2023-04-28T13:41:05.807Z,2.25
2023-04-28T13:43:07.325Z,3.00
2023-04-28T13:45:09.474Z,3.00
2023-04-28T13:47:11.155Z,2.25
2023-04-28T13:49:13.312Z,3.00
2023-04-28T13:51:15.182Z,3.50
2023-04-28T13:53:16.795Z,2.00
2023-04-28T13:55:18.372Z,3.00
2023-04-28T13:57:21.257Z,3.00
2023-04-28T13:59:22.985Z,3.00
2023-04-28T14:01:24.630Z,2.00
2023-04-28T14:03:27.075Z,3.00
2023-04-28T14:05:31.585Z,3.00
2023-04-28T14:07:37.883Z,3.25
2023-04-28T14:09:39.689Z,3.50
2023-04-28T14:11:41.239Z,3.00
2023-04-28T14:13:44.072Z,5.20
2023-04-28T14:15:57.919Z,3.75
2023-04-28T14:18:01.065Z,2.60
2023-04-28T14:20:03.407Z,3.80
2023-04-28T14:22:05.014Z,3.60
2023-04-28T14:24:06.653Z,4.00
2023-04-28T14:26:08.316Z,3.40
2023-04-28T14:28:09.999Z,4.00
2023-04-28T14:30:14.202Z,3.00
2023-04-28T14:32:16.445Z,2.20
2023-04-28T14:34:17.999Z,2.80
2023-04-28T14:36:19.964Z,3.00
2023-04-28T14:38:21.610Z,2.80
2023-04-28T14:40:24.518Z,2.80
2023-04-28T14:42:28.975Z,2.80
2023-04-28T14:44:30.567Z,2.80
2023-04-28T14:46:33.905Z,1.60
2023-04-28T14:48:36.889Z,2.80
2023-04-28T14:50:38.549Z,3.60
2023-04-28T14:52:40.723Z,1.60
2023-04-28T14:54:42.411Z,2.80
2023-04-28T14:56:44.046Z,2.20
2023-04-28T14:58:45.681Z,2.60
2023-04-28T15:00:47.327Z,1.80
2023-04-28T15:02:50.447Z,3.00
2023-04-28T15:04:52.480Z,1.80
2023-04-28T15:06:54.602Z,1.60
2023-04-28T15:08:56.229Z,1.60
2023-04-28T15:10:57.962Z,2.60
2023-04-28T15:12:59.553Z,3.40
2023-04-28T15:15:01.181Z,1.80
2023-04-28T15:17:02.741Z,2.20
2023-04-28T15:19:05.671Z,1.60
2023-04-28T15:21:07.233Z,2.20
2023-04-28T15:23:08.733Z,2.00
2023-04-28T15:25:10.431Z,2.00
2023-04-28T15:27:12.014Z,1.60
2023-04-28T15:29:13.721Z,2.00
2023-04-28T15:31:15.478Z,2.60
2023-04-28T15:33:17.128Z,3.00
2023-04-28T15:35:20.222Z,2.00
2023-04-28T15:37:39.891Z,3.00
2023-04-28T15:39:41.548Z,2.40
2023-04-28T15:41:43.115Z,3.00
2023-04-28T15:43:44.847Z,2.40
2023-04-28T15:45:46.568Z,3.00
2023-04-28T15:47:48.884Z,2.75
2023-04-28T15:49:50.612Z,2.60
2023-04-28T15:51:53.618Z,2.00
2023-04-28T15:53:55.562Z,2.00
2023-04-28T15:55:57.624Z,2.25
2023-04-28T15:58:01.553Z,2.00
2023-04-28T16:00:03.449Z,3.00
2023-04-28T16:02:05.101Z,2.25
2023-04-28T16:04:06.889Z,3.00
2023-04-28T16:06:08.874Z,2.00
2023-04-28T16:08:11.829Z,2.00
2023-04-28T16:10:15.342Z,1.25
2023-04-28T16:12:16.943Z,2.50
2023-04-28T16:14:18.530Z,2.00
2023-04-28T16:16:20.449Z,3.00
2023-04-28T16:18:22.133Z,3.00
2023-04-28T16:20:23.958Z,2.00
2023-04-28T16:22:25.989Z,2.00
2023-04-28T16:24:28.952Z,2.25
2023-04-28T16:26:30.579Z,2.50
2023-04-28T16:28:32.602Z,1.75
2023-04-28T16:30:34.133Z,2.00
2023-04-28T16:32:35.906Z,2.25
2023-04-28T16:34:37.459Z,2.00
2023-04-28T16:36:39.092Z,3.25
2023-04-28T16:38:41.154Z,3.25
2023-04-28T16:40:44.080Z,2.00
2023-04-28T16:42:45.669Z,3.00
2023-04-28T16:44:47.216Z,3.75
2023-04-28T16:46:48.779Z,3.00
2023-04-28T16:48:50.324Z,3.25
2023-04-28T16:50:52.453Z,3.00
2023-04-28T16:52:54.051Z,1.00
2023-04-28T16:54:55.635Z,3.00
2023-04-28T16:57:00.022Z,2.50
2023-04-28T16:59:01.548Z,2.00
2023-04-28T17:01:03.223Z,2.00
2023-04-28T17:03:04.968Z,3.00
2023-04-28T17:05:07.324Z,3.75
2023-04-28T17:07:08.869Z,3.00
2023-04-28T17:09:10.714Z,2.25
2023-04-28T17:11:16.061Z,3.00
2023-04-28T17:13:19.017Z,3.00
2023-04-28T17:15:20.787Z,2.00
2023-04-28T17:17:22.424Z,2.00
2023-04-28T17:19:24.074Z,1.00
2023-04-28T17:21:25.771Z,2.00
2023-04-28T17:23:30.638Z,2.75
2023-04-28T17:25:32.189Z,2.50
2023-04-28T17:27:33.780Z,1.25
2023-04-28T17:29:39.829Z,3.00
2023-04-28T17:31:41.458Z,2.00
2023-04-28T17:33:43.097Z,3.00
2023-04-28T17:35:44.667Z,2.00
2023-04-28T17:37:46.301Z,3.25
2023-04-28T17:39:49.694Z,2.50
2023-04-28T17:41:51.686Z,2.00
2023-04-28T17:43:53.208Z,2.00
2023-04-28T17:45:56.589Z,2.75
2023-04-28T17:47:58.360Z,1.50
2023-04-28T17:49:59.925Z,2.00
2023-04-28T17:52:01.513Z,3.00
2023-04-28T17:54:03.104Z,4.00
2023-04-28T17:56:05.290Z,3.00
2023-04-28T17:58:10.613Z,6.00
2023-04-28T18:00:13.630Z,6.50
2023-04-28T18:02:16.803Z,5.75
2023-04-28T18:04:18.449Z,4.50
2023-04-28T18:06:20.127Z,4.50
2023-04-28T18:08:21.734Z,2.25
2023-04-28T18:10:23.207Z,2.50
2023-04-28T18:12:24.820Z,2.50
2023-04-28T18:14:26.384Z,2.00
2023-04-28T18:16:27.935Z,1.50
2023-04-28T18:18:32.622Z,1.00
2023-04-28T18:20:35.744Z,1.00
2023-04-28T18:22:37.312Z,1.00
2023-04-28T18:24:38.932Z,2.00
2023-04-28T18:26:40.590Z,1.00
2023-04-28T18:28:45.490Z,2.00
2023-04-28T18:30:47.078Z,1.00
2023-04-28T18:32:48.984Z,1.00
2023-04-28T18:34:52.281Z,2.00
2023-04-28T18:36:53.940Z,2.00
2023-04-28T18:38:55.492Z,2.75
2023-04-28T18:40:57.444Z,2.00
2023-04-28T18:43:01.909Z,2.25
2023-04-28T18:45:04.028Z,3.00
2023-04-28T18:47:05.698Z,2.00
2023-04-28T18:49:07.531Z,2.00
2023-04-28T18:51:10.437Z,2.00
2023-04-28T18:53:12.015Z,3.00
2023-04-28T18:55:13.523Z,3.00
2023-04-28T18:57:16.581Z,0.00
2023-04-28T18:59:18.157Z,2.00
2023-04-28T19:01:19.812Z,2.00
2023-04-28T19:03:21.732Z,2.00
2023-04-28T19:05:23.643Z,2.00
2023-04-28T19:07:26.618Z,2.00
2023-04-28T19:09:28.151Z,2.00
2023-04-28T19:11:29.756Z,2.00
2023-04-28T19:13:31.416Z,1.00
2023-04-28T19:15:32.993Z,2.25
2023-04-28T19:17:34.713Z,2.00
2023-04-28T19:19:36.299Z,1.25
2023-04-28T19:21:43.008Z,3.00
2023-04-28T19:23:45.951Z,1.75
2023-04-28T19:25:47.945Z,2.75
2023-04-28T19:27:49.601Z,1.00
2023-04-28T19:29:51.419Z,2.00
2023-04-28T19:31:53.272Z,2.00
2023-04-28T19:33:54.925Z,2.50
2023-04-28T19:35:56.692Z,1.00
2023-04-28T19:37:58.275Z,3.00
2023-04-28T19:40:02.197Z,2.75
2023-04-28T19:42:04.736Z,1.25
2023-04-28T19:44:06.460Z,2.00
2023-04-28T19:46:08.049Z,2.75
2023-04-28T19:48:09.936Z,2.00
2023-04-28T19:50:11.627Z,2.00
2023-04-28T19:52:13.198Z,2.75
2023-04-28T19:54:15.709Z,2.00
2023-04-28T19:56:19.661Z,2.00
2023-04-28T19:58:21.411Z,2.50
2023-04-28T20:00:23.563Z,2.75
2023-04-28T20:02:25.343Z,3.00
2023-04-28T20:04:27.395Z,1.50
2023-04-28T20:06:29.234Z,1.00
2023-04-28T20:08:30.796Z,2.00
2023-04-28T20:10:32.354Z,2.00
2023-04-28T20:12:35.388Z,2.00
2023-04-28T20:14:36.986Z,1.50
2023-04-28T20:16:38.551Z,2.00
2023-04-28T20:18:40.591Z,2.25
2023-04-28T20:20:42.145Z,2.00
2023-04-28T20:22:45.840Z,1.50
2023-04-28T20:24:47.381Z,0.00
2023-04-28T20:26:49.318Z,1.50
2023-04-28T20:28:52.203Z,2.00
2023-04-28T20:30:53.786Z,2.00
2023-04-28T20:32:55.498Z,2.00
2023-04-28T20:34:57.111Z,2.00
2023-04-28T20:36:59.693Z,2.00
2023-04-28T20:39:01.497Z,2.25
2023-04-28T20:41:03.059Z,2.50
2023-04-28T20:43:04.583Z,2.50
2023-04-28T20:45:08.958Z,2.00
2023-04-28T20:47:10.585Z,2.00
2023-04-28T20:49:12.129Z,2.00
2023-04-28T20:51:13.731Z,1.75
2023-04-28T20:53:15.334Z,2.00
2023-04-28T20:55:16.963Z,2.00
2023-04-28T20:57:18.532Z,2.00
2023-04-28T20:59:20.201Z,2.25
2023-04-28T21:01:23.283Z,3.00
2023-04-28T21:03:25.388Z,3.00
2023-04-28T21:05:26.958Z,2.00
2023-04-28T21:07:28.625Z,2.00
2023-04-28T21:09:30.168Z,1.75
2023-04-28T21:11:31.762Z,2.00
2023-04-28T21:13:33.360Z,2.00
2023-04-28T21:15:36.916Z,2.00
2023-04-28T21:17:39.859Z,3.00
2023-04-28T21:19:41.425Z,2.75
2023-04-28T21:21:43.035Z,2.50
2023-04-28T21:23:44.591Z,2.50
2023-04-28T21:25:46.194Z,2.00
2023-04-28T21:27:47.830Z,3.00
2023-04-28T21:29:49.669Z,3.00
2023-04-28T21:31:51.422Z,4.00
2023-04-28T21:33:54.318Z,3.00
2023-04-28T21:35:57.073Z,3.00
2023-04-28T21:37:58.801Z,4.00
2023-04-28T21:40:00.348Z,2.00
2023-04-28T21:42:02.091Z,3.00
2023-04-28T21:44:04.011Z,2.00
2023-04-28T21:46:05.560Z,2.75
2023-04-28T21:48:07.401Z,2.25
2023-04-28T21:50:10.657Z,3.00
2023-04-28T21:52:12.318Z,2.25
2023-04-28T21:54:13.965Z,3.00
2023-04-28T21:56:15.698Z,0.00
2023-04-28T21:58:17.287Z,2.00
2023-04-28T22:00:18.913Z,3.00
2023-04-28T22:02:20.857Z,3.25
2023-04-28T22:04:22.716Z,2.75
2023-04-28T22:06:26.695Z,2.25
2023-04-28T22:08:28.464Z,3.00
2023-04-28T22:10:31.886Z,1.00
2023-04-28T22:12:34.876Z,3.00
2023-04-28T22:14:40.979Z,2.50
2023-04-28T22:16:43.027Z,2.25
2023-04-28T22:18:44.549Z,3.00
2023-04-28T22:20:46.174Z,3.50
2023-04-28T22:22:49.183Z,2.00
2023-04-28T22:24:50.700Z,2.00
2023-04-28T22:26:52.244Z,3.00
2023-04-28T22:28:53.902Z,2.75
2023-04-28T22:30:55.673Z,2.25
2023-04-28T22:32:57.412Z,3.50
2023-04-28T22:34:58.959Z,3.00
2023-04-28T22:37:00.516Z,1.75
2023-04-28T22:39:03.632Z,4.00
2023-04-28T22:41:05.381Z,2.00
2023-04-28T22:43:07.088Z,2.00
2023-04-28T22:45:18.674Z,3.00
2023-04-28T22:47:20.244Z,2.50
2023-04-28T22:49:22.087Z,4.00
2023-04-28T22:51:23.738Z,3.00
2023-04-28T22:53:25.333Z,2.00
2023-04-28T22:55:28.285Z,2.25
2023-04-28T22:57:30.165Z,4.00
2023-04-28T22:59:32.853Z,2.00
2023-04-28T23:01:34.442Z,4.00
2023-04-28T23:03:36.557Z,4.00
2023-04-28T23:05:38.810Z,2.00
2023-04-28T23:07:40.701Z,2.75
2023-04-28T23:09:42.221Z,3.00
2023-04-28T23:11:45.165Z,4.00
2023-04-28T23:13:46.665Z,3.00
2023-04-28T23:15:48.363Z,3.00
2023-04-28T23:17:50.002Z,2.00
2023-04-28T23:19:52.031Z,3.00
2023-04-28T23:21:53.846Z,2.75
2023-04-28T23:23:55.518Z,3.50
2023-04-28T23:25:57.068Z,3.25
2023-04-28T23:28:00.676Z,3.00
2023-04-28T23:30:02.410Z,4.00
2023-04-28T23:32:04.457Z,4.25
2023-04-28T23:34:06.845Z,3.75
2023-04-28T23:36:08.799Z,0.00
2023-04-28T23:38:10.413Z,3.00
2023-04-28T23:40:13.380Z,3.00
2023-04-28T23:42:15.504Z,4.00
2023-04-28T23:44:18.661Z,3.75
2023-04-28T23:46:20.712Z,3.50
2023-04-28T23:48:22.795Z,3.25
2023-04-28T23:50:24.735Z,5.00
2023-04-28T23:52:26.491Z,3.00
2023-04-28T23:54:28.055Z,3.00
2023-04-28T23:56:29.675Z,4.00
2023-04-28T23:58:31.306Z,4.00
